Weather at Gilbert Airport [CLOSED]

Public forecast

Using degrees Fahrenheit for public forecast. Weather courtesy of forecast.io.

Closest aviation weather report (METAR) to Gilbert Airport

Report is more than 6 hours old.

Closest report is Chandler Municipal Airport, 4.6 nm (8.6 km) S. Retrieved 2021/06/20 23:47 UTC (9 hours ago):

KCHD 202347Z 25015G22KT 10SM SKC 44/03 A2967

Closest aviation forecast (TAF) to Gilbert Airport

Closest forecast is Phoenix-Mesa-Gateway Airport, 7.3 nm (13.6 km) ESE. Retrieved 2021/06/21 06:24 UTC (3 hours ago):

TAF KIWA 210520Z 2106/2206 25010KT P6SM SKC FM210800 12006KT P6SM SKC FM211700 27012KT P6SM SKC FM220300 27007KT P6SM SKC AMD LTD TO CLD VIS AND WIND TIL 211200